Time;durP1;ratioP1;P1;durP2;ratioP2;P2;SDS_P1;SDS_P2;PMS_P1;PMS_P2;Temp;Humidity;BMP_temperature;BMP_pressure;BME280_temperature;BME280_humidity;BME280_pressure;Samples;Min_cycle;Max_cycle;Signal;HPM_P1;HPM_P2
2024/04/16 00:01:47;;;;;;;2.33;1.08;;;11.50;57.70;13.50;99730.00;;;;22621109;26;20464;-38
2024/04/16 00:11:48;;;;;;;2.70;2.00;;;11.60;57.20;13.50;99715.00;;;;22655339;26;20412;-39
2024/04/16 00:21:49;;;;;;;2.97;1.93;;;11.50;57.40;13.50;99714.00;;;;22635937;26;20040;-39
2024/04/16 00:31:49;;;;;;;3.03;2.10;;;11.50;57.40;13.50;99732.00;;;;22666319;26;20576;-39
2024/04/16 00:41:50;;;;;;;3.60;1.97;;;11.60;57.00;13.40;99718.00;;;;22635514;26;20227;-39
2024/04/16 00:51:53;;;;;;;3.00;2.10;;;11.70;56.80;13.50;99721.00;;;;22629472;26;20231;-38
2024/04/16 01:01:57;;;;;;;6.13;2.90;;;11.60;56.90;13.50;99729.00;;;;22657574;26;20013;-39
2024/04/16 01:11:58;;;;;;;3.83;2.25;;;11.60;56.60;13.30;99753.00;;;;22653527;26;20026;-38
2024/04/16 01:21:59;;;;;;;3.63;2.40;;;11.50;56.70;13.20;99753.00;;;;22672505;26;20042;-38
2024/04/16 01:32:03;;;;;;;2.30;1.53;;;11.50;55.90;13.30;99765.00;;;;22661984;26;20013;-38
2024/04/16 01:42:04;;;;;;;2.45;2.22;;;11.50;55.40;13.40;99758.00;;;;22668348;26;20625;-39
2024/04/16 01:52:05;;;;;;;5.55;1.80;;;11.60;55.50;13.40;99771.00;;;;22650095;26;20030;-38
2024/04/16 02:02:08;;;;;;;1.50;1.40;;;11.60;55.30;13.50;99767.00;;;;22651780;26;20014;-39
2024/04/16 02:12:08;;;;;;;2.47;1.38;;;11.70;55.10;13.50;99750.00;;;;22617635;26;20078;-39
2024/04/16 02:22:09;;;;;;;1.97;1.70;;;11.70;54.90;13.50;99758.00;;;;22653158;26;20078;-38
2024/04/16 02:32:10;;;;;;;2.70;2.50;;;11.80;54.80;13.40;99753.00;;;;22650174;26;20099;-38
2024/04/16 02:42:11;;;;;;;2.60;2.07;;;11.70;54.40;13.30;99742.00;;;;22647611;26;20375;-39
2024/04/16 02:52:11;;;;;;;2.95;2.45;;;11.60;54.20;13.00;99740.00;;;;22624221;26;20717;-38
2024/04/16 03:02:14;;;;;;;20.37;2.87;;;11.40;54.20;12.90;99731.00;;;;22636784;26;20006;-38
2024/04/16 03:12:16;;;;;;;1.90;1.80;;;11.30;54.40;12.80;99725.00;;;;22639513;26;20223;-38
2024/04/16 03:22:18;;;;;;;2.67;2.22;;;11.20;54.40;12.80;99716.00;;;;22628269;26;20494;-38
2024/04/16 03:32:21;;;;;;;1.95;1.75;;;11.20;54.60;12.90;99713.00;;;;22615894;26;20003;-38
2024/04/16 03:42:25;;;;;;;1.67;1.33;;;11.20;54.60;13.00;99729.00;;;;22644378;26;19994;-39
2024/04/16 03:52:26;;;;;;;3.47;1.88;;;11.20;54.70;13.00;99721.00;;;;22654404;26;20006;-38
2024/04/16 04:02:26;;;;;;;1.83;1.48;;;11.30;54.60;13.10;99722.00;;;;22662993;26;20012;-38
2024/04/16 04:12:27;;;;;;;2.53;1.57;;;11.40;54.60;13.10;99704.00;;;;22672415;26;20430;-39
2024/04/16 04:22:28;;;;;;;1.33;1.20;;;11.40;54.50;13.20;99725.00;;;;22650730;26;20220;-38
2024/04/16 04:32:30;;;;;;;3.50;1.37;;;11.40;54.40;13.20;99702.00;;;;22667278;26;20671;-39
2024/04/16 04:42:30;;;;;;;3.10;1.35;;;11.50;54.40;13.30;99721.00;;;;22656122;26;20271;-39
2024/04/16 04:52:31;;;;;;;1.87;1.37;;;11.60;54.40;13.40;99725.00;;;;22663985;26;20002;-38
2024/04/16 05:02:32;;;;;;;1.10;1.10;;;11.70;54.50;13.40;99721.00;;;;22656265;26;20220;-37
2024/04/16 05:12:32;;;;;;;1.35;1.35;;;11.70;54.40;13.40;99708.00;;;;22603201;26;20239;-38
2024/04/16 05:22:33;;;;;;;5.18;1.50;;;11.70;54.40;13.40;99749.00;;;;22658380;26;19995;-38
2024/04/16 05:32:34;;;;;;;2.58;1.67;;;11.70;54.60;13.40;99735.00;;;;22604153;26;20005;-38
2024/04/16 05:42:35;;;;;;;1.52;1.35;;;11.70;55.00;13.30;99722.00;;;;22633641;26;20013;-38
2024/04/16 05:52:35;;;;;;;1.70;1.40;;;11.70;55.20;13.40;99748.00;;;;22602102;26;20051;-38
2024/04/16 06:02:36;;;;;;;1.52;1.42;;;11.60;56.30;13.30;99743.00;;;;22635393;26;20228;-38
2024/04/16 06:12:37;;;;;;;1.48;1.38;;;11.60;56.40;13.30;99748.00;;;;22621070;26;20042;-38
2024/04/16 06:22:38;;;;;;;1.93;1.83;;;11.60;56.30;13.30;99734.00;;;;22600922;26;20021;-38
2024/04/16 06:32:41;;;;;;;2.28;1.85;;;11.60;56.90;13.30;99760.00;;;;22635797;26;20016;-38
2024/04/16 06:42:42;;;;;;;2.17;2.00;;;11.50;57.30;13.30;99757.00;;;;22619997;26;20815;-38
2024/04/16 06:52:42;;;;;;;1.80;1.70;;;11.50;57.90;13.10;99757.00;;;;22660060;26;20073;-38
2024/04/16 07:02:43;;;;;;;2.00;1.90;;;11.40;57.10;13.10;99770.00;;;;22639716;26;20231;-38
2024/04/16 07:12:44;;;;;;;2.05;1.95;;;11.40;57.20;13.30;99757.00;;;;22629517;26;20017;-38
2024/04/16 07:22:44;;;;;;;2.10;1.90;;;11.50;57.70;13.30;99779.00;;;;22620573;26;20600;-38
2024/04/16 07:32:45;;;;;;;5.68;3.05;;;11.50;57.70;13.40;99776.00;;;;22624353;26;20238;-38
2024/04/16 07:42:46;;;;;;;2.30;2.08;;;11.60;58.10;13.50;99780.00;;;;22631635;26;20006;-38
2024/04/16 07:52:52;;;;;;;2.47;2.07;;;11.60;57.80;13.70;99776.00;;;;22610526;26;20426;-39
2024/04/16 08:02:56;;;;;;;5.13;2.25;;;11.70;58.80;13.70;99804.00;;;;22641482;26;20227;-38
2024/04/16 08:12:57;;;;;;;2.50;2.30;;;11.80;59.50;13.70;99799.00;;;;22603350;26;20017;-38
2024/04/16 08:22:59;;;;;;;2.83;2.05;;;11.80;59.10;13.60;99811.00;;;;22615074;26;19994;-38
2024/04/16 08:33:00;;;;;;;2.80;2.13;;;11.80;58.30;13.60;99803.00;;;;22580767;26;20450;-38
2024/04/16 08:43:05;;;;;;;3.05;2.00;;;11.80;58.20;13.90;99824.00;;;;22625398;26;20336;-38
2024/04/16 08:53:07;;;;;;;5.85;2.35;;;11.90;58.40;14.30;99843.00;;;;22636505;26;19998;-38
2024/04/16 09:03:08;;;;;;;2.95;2.53;;;12.20;58.90;14.90;99813.00;;;;22617445;26;20819;-39
2024/04/16 09:13:11;;;;;;;5.32;2.72;;;12.60;59.10;15.30;99817.00;;;;22635627;26;20010;-39
2024/04/16 09:23:12;;;;;;;3.95;2.22;;;13.00;58.80;15.60;99833.00;;;;22628706;26;20039;-39
2024/04/16 09:33:20;;;;;;;7.65;2.70;;;13.40;58.10;15.70;99844.00;;;;22639650;26;20425;-39
2024/04/16 09:43:21;;;;;;;2.83;1.80;;;13.60;57.60;15.90;99832.00;;;;22614056;26;20010;-39
2024/04/16 09:53:24;;;;;;;7.82;2.20;;;13.70;57.60;16.10;99852.00;;;;22579275;26;20231;-39
2024/04/16 10:03:27;;;;;;;5.25;2.50;;;13.90;57.10;16.30;99850.00;;;;22574704;26;19993;-40
2024/04/16 10:13:30;;;;;;;3.28;1.88;;;14.10;55.90;16.30;99842.00;;;;22605212;26;20071;-39
2024/04/16 10:23:31;;;;;;;3.13;1.85;;;14.10;55.80;16.70;99820.00;;;;22614530;26;20011;-40
2024/04/16 10:33:36;;;;;;;2.15;1.42;;;14.30;56.30;16.90;99848.00;;;;22652429;26;19998;-40
2024/04/16 10:43:41;;;;;;;5.47;1.70;;;14.60;55.70;17.00;99859.00;;;;22602959;26;20005;-39
2024/04/16 10:53:43;;;;;;;7.10;2.13;;;14.70;55.80;17.10;99858.00;;;;22619735;26;20070;-40
2024/04/16 11:03:52;;;;;;;3.08;2.00;;;14.80;55.00;17.30;99864.00;;;;22631214;26;20009;-40
2024/04/16 11:13:53;;;;;;;3.53;2.30;;;14.90;55.10;17.60;99845.00;;;;22641860;26;20605;-40
2024/04/16 11:23:54;;;;;;;3.17;2.17;;;15.20;54.80;17.90;99833.00;;;;22650060;26;20469;-42
2024/04/16 11:33:55;;;;;;;2.00;1.80;;;15.40;54.70;18.00;99862.00;;;;22577826;26;20022;-42
2024/04/16 11:43:57;;;;;;;2.40;2.20;;;15.70;53.90;18.10;99861.00;;;;22650075;26;19994;-42
2024/04/16 11:53:57;;;;;;;3.30;3.00;;;15.70;52.80;18.20;99860.00;;;;22554622;26;20006;-44
2024/04/16 12:03:58;;;;;;;2.50;2.30;;;15.80;51.90;18.50;99871.00;;;;22633584;26;20004;-43
2024/04/16 12:13:59;;;;;;;3.63;3.20;;;15.90;53.40;18.60;99912.00;;;;22631955;26;20069;-42
2024/04/16 12:24:00;;;;;;;2.40;2.22;;;16.10;51.00;18.30;99898.00;;;;22607398;26;20034;-43
2024/04/16 12:34:01;;;;;;;2.67;2.47;;;16.10;51.80;18.20;99885.00;;;;22656259;26;19998;-43
2024/04/16 12:44:02;;;;;;;2.80;2.60;;;16.00;52.20;18.10;99888.00;;;;22668845;26;20219;-44
2024/04/16 12:54:04;;;;;;;5.93;3.23;;;15.90;52.20;18.00;99903.00;;;;22662592;26;20013;-44
2024/04/16 13:04:04;;;;;;;2.63;2.42;;;15.80;52.20;18.10;99903.00;;;;22661626;26;20630;-42
2024/04/16 13:14:05;;;;;;;2.30;2.20;;;15.80;53.10;18.30;99884.00;;;;22666974;26;20006;-45
2024/04/16 13:24:09;;;;;;;1.50;1.40;;;16.00;53.60;18.60;99878.00;;;;22658872;26;20010;-45
2024/04/16 13:34:09;;;;;;;2.10;1.95;;;16.20;53.00;18.50;99914.00;;;;22651460;26;20227;-43
2024/04/16 13:44:11;;;;;;;1.40;1.17;;;16.20;52.40;17.70;99930.00;;;;22634039;26;20005;-40
2024/04/16 13:54:11;;;;;;;1.10;1.10;;;15.90;51.00;16.80;99909.00;;;;22645247;26;20231;-40
2024/04/16 14:04:12;;;;;;;0.70;0.70;;;15.30;51.20;16.20;99912.00;;;;22655688;26;20038;-40
2024/04/16 14:14:16;;;;;;;1.05;0.95;;;14.80;51.70;15.90;99875.00;;;;22628589;26;20224;-40
2024/04/16 14:24:19;;;;;;;0.98;0.98;;;14.30;52.40;16.10;99890.00;;;;22573050;26;19998;-40
2024/04/16 14:34:21;;;;;;;0.90;0.90;;;14.20;53.50;16.50;99870.00;;;;22628794;26;20023;-40
2024/04/16 14:44:22;;;;;;;1.05;1.05;;;14.40;54.30;17.00;99891.00;;;;22606831;26;20016;-40
2024/04/16 14:54:22;;;;;;;2.83;1.20;;;14.70;54.60;17.50;99895.00;;;;22640098;26;20002;-40
2024/04/16 15:04:23;;;;;;;2.08;1.20;;;15.10;54.50;17.90;99900.00;;;;22627795;26;20337;-40
2024/04/16 15:14:24;;;;;;;1.17;1.00;;;15.50;54.30;18.20;99893.00;;;;22623280;26;20427;-40
2024/04/16 15:24:25;;;;;;;4.67;3.47;;;15.80;54.00;18.40;99922.00;;;;22637441;26;19998;-41
2024/04/16 15:34:25;;;;;;;2.45;2.08;;;16.10;53.50;18.30;99929.00;;;;22646995;26;20231;-40
2024/04/16 15:44:26;;;;;;;1.67;1.37;;;16.20;52.80;18.20;99923.00;;;;22659585;25;20008;-40
2024/04/16 15:54:27;;;;;;;1.15;1.00;;;16.20;52.70;18.10;99959.00;;;;22666186;26;20250;-40
2024/04/16 16:04:29;;;;;;;1.70;1.60;;;16.10;52.80;17.80;99954.00;;;;22611189;26;20030;-40
2024/04/16 16:14:30;;;;;;;1.35;1.10;;;16.00;52.50;17.30;99963.00;;;;22656595;26;20012;-41
2024/04/16 16:24:31;;;;;;;1.00;0.90;;;15.60;52.10;17.10;99968.00;;;;22616451;26;20558;-40
2024/04/16 16:34:32;;;;;;;0.97;0.97;;;15.30;52.70;17.00;100004.00;;;;22637932;26;20615;-40
2024/04/16 16:44:33;;;;;;;1.00;0.82;;;15.20;53.00;16.90;100003.00;;;;22651464;26;20223;-40
2024/04/16 16:54:34;;;;;;;0.80;0.80;;;15.10;53.10;16.80;100007.00;;;;22662899;26;20013;-40
2024/04/16 17:04:34;;;;;;;1.02;0.93;;;14.90;53.20;16.60;100019.00;;;;22641194;26;20445;-40
2024/04/16 17:14:35;;;;;;;0.70;0.70;;;14.90;53.20;16.50;100018.00;;;;22660176;26;20009;-40
2024/04/16 17:24:38;;;;;;;1.52;1.10;;;14.70;53.40;16.40;100029.00;;;;22646467;26;20037;-40
2024/04/16 17:34:39;;;;;;;0.88;0.88;;;14.60;53.70;16.40;100022.00;;;;22648959;26;20030;-40
2024/04/16 17:44:39;;;;;;;0.70;0.70;;;14.50;53.90;16.30;100064.00;;;;22605654;26;20042;-40
2024/04/16 17:54:40;;;;;;;0.63;0.63;;;14.40;54.00;16.20;100077.00;;;;22655015;26;20002;-40
2024/04/16 18:04:41;;;;;;;0.60;0.60;;;14.40;54.00;16.00;100085.00;;;;22655353;26;20294;-40
2024/04/16 18:14:44;;;;;;;0.40;0.40;;;14.20;53.90;15.80;100110.00;;;;22651125;26;20010;-40
2024/04/16 18:24:46;;;;;;;0.75;0.75;;;14.10;54.00;15.80;100135.00;;;;22650647;26;20255;-39
2024/04/16 18:34:46;;;;;;;0.70;0.70;;;14.00;54.00;15.70;100101.00;;;;22620723;26;20017;-40
2024/04/16 18:44:47;;;;;;;0.70;0.70;;;13.90;54.10;15.60;100173.00;;;;22656287;26;20523;-39
2024/04/16 18:54:48;;;;;;;0.70;0.70;;;13.80;54.10;15.40;100191.00;;;;22651529;26;20477;-39
2024/04/16 19:04:49;;;;;;;0.67;0.67;;;13.70;54.20;15.20;100195.00;;;;22652728;26;20009;-40
2024/04/16 19:14:50;;;;;;;0.90;0.70;;;13.50;54.00;15.00;100203.00;;;;22645485;26;20279;-39
2024/04/16 19:24:51;;;;;;;0.50;0.50;;;13.30;53.80;14.70;100188.00;;;;22617373;25;20041;-40
2024/04/16 19:34:54;;;;;;;0.63;0.63;;;13.10;53.80;14.40;100206.00;;;;22630824;26;20516;-40
2024/04/16 19:44:55;;;;;;;1.00;0.85;;;12.90;53.80;14.20;100225.00;;;;22631854;26;20432;-39
2024/04/16 19:54:55;;;;;;;1.03;1.03;;;12.70;53.80;14.00;100211.00;;;;22652901;25;20320;-39
2024/04/16 20:04:56;;;;;;;1.50;1.40;;;12.50;53.80;13.70;100239.00;;;;22644720;26;20002;-40
2024/04/16 20:14:58;;;;;;;1.50;1.40;;;12.30;53.70;13.50;100240.00;;;;22643746;26;20313;-39
2024/04/16 20:25:01;;;;;;;1.10;1.10;;;12.10;53.80;13.20;100270.00;;;;22663790;26;20008;-39
2024/04/16 20:35:03;;;;;;;2.85;0.90;;;11.80;53.80;13.00;100266.00;;;;22646341;26;20216;-39
2024/04/16 20:45:07;;;;;;;0.82;0.82;;;11.60;53.90;12.80;100287.00;;;;22619095;26;20018;-39
2024/04/16 20:55:08;;;;;;;1.10;1.00;;;11.40;53.90;12.60;100282.00;;;;22675993;26;20017;-39
2024/04/16 21:05:09;;;;;;;1.50;1.13;;;11.30;54.00;12.50;100296.00;;;;22647367;26;19998;-39
2024/04/16 21:15:09;;;;;;;1.13;1.13;;;11.10;54.10;12.30;100322.00;;;;22634015;26;20247;-39
2024/04/16 21:25:10;;;;;;;1.00;1.00;;;10.90;54.10;12.10;100322.00;;;;22640757;26;19998;-39
2024/04/16 21:35:11;;;;;;;1.60;1.45;;;10.80;54.30;12.10;100315.00;;;;22666201;26;20376;-39
2024/04/16 21:45:11;;;;;;;1.70;1.10;;;10.60;54.40;12.00;100333.00;;;;22693908;26;19998;-39
2024/04/16 21:55:12;;;;;;;1.00;1.00;;;10.60;54.50;11.90;100313.00;;;;22595407;26;20219;-39
2024/04/16 22:05:14;;;;;;;1.40;1.30;;;10.50;54.60;11.80;100338.00;;;;22666060;26;20014;-39
2024/04/16 22:15:15;;;;;;;3.53;3.22;;;10.40;54.60;11.70;100350.00;;;;22658923;26;20468;-39
2024/04/16 22:25:15;;;;;;;4.20;3.80;;;10.30;54.50;11.50;100360.00;;;;22646904;26;20368;-38
2024/04/16 22:35:17;;;;;;;4.53;4.13;;;10.20;54.50;11.40;100372.00;;;;22649957;26;20053;-39
2024/04/16 22:45:18;;;;;;;4.70;4.28;;;10.10;54.50;11.30;100364.00;;;;22668806;26;20484;-39
2024/04/16 22:55:19;;;;;;;2.92;2.65;;;10.00;54.60;11.10;100382.00;;;;22668262;26;20323;-38
2024/04/16 23:05:20;;;;;;;2.22;2.03;;;9.80;54.60;11.00;100383.00;;;;22653110;26;20010;-38
2024/04/16 23:15:21;;;;;;;2.60;2.10;;;9.70;55.20;10.90;100380.00;;;;22697753;26;20074;-38
2024/04/16 23:25:22;;;;;;;1.50;1.40;;;9.60;54.50;10.70;100402.00;;;;22653125;26;20250;-38
2024/04/16 23:35:22;;;;;;;1.58;1.48;;;9.50;54.60;10.50;100416.00;;;;22655499;26;20434;-38
2024/04/16 23:45:23;;;;;;;1.57;1.13;;;9.30;54.60;10.30;100425.00;;;;22645699;26;19998;-38
2024/04/16 23:55:24;;;;;;;1.25;1.10;;;9.10;54.60;10.10;100421.00;;;;22647711;26;20332;-39
